createdAt,value
2017-11-30T00:00:26.381Z,4.30
2017-11-30T00:02:54.063Z,4.40
2017-11-30T00:05:21.873Z,4.20
2017-11-30T00:07:49.554Z,4.40
2017-11-30T00:10:17.194Z,4.40
2017-11-30T00:12:44.894Z,4.40
2017-11-30T00:15:12.574Z,4.20
2017-11-30T00:17:40.425Z,4.20
2017-11-30T00:20:08.126Z,4.10
2017-11-30T00:22:36.559Z,4.20
2017-11-30T00:25:04.230Z,4.20
2017-11-30T00:27:31.938Z,4.20
2017-11-30T00:29:59.799Z,4.20
2017-11-30T00:32:27.475Z,4.20
2017-11-30T00:34:55.091Z,4.20
2017-11-30T00:37:22.710Z,4.10
2017-11-30T00:39:50.369Z,4.20
2017-11-30T00:42:29.743Z,4.10
2017-11-30T00:44:58.320Z,4.20
2017-11-30T00:47:26.758Z,4.10
2017-11-30T00:49:54.510Z,3.90
2017-11-30T00:52:22.183Z,4.10
2017-11-30T00:54:49.843Z,4.10
2017-11-30T00:57:17.564Z,3.80
2017-11-30T00:59:45.232Z,4.00
2017-11-30T01:02:13.669Z,3.70
2017-11-30T01:04:41.652Z,3.80
2017-11-30T01:07:09.322Z,3.70
2017-11-30T01:09:38.473Z,3.60
2017-11-30T01:12:06.704Z,3.80
2017-11-30T01:14:34.382Z,3.70
2017-11-30T01:17:02.051Z,3.90
2017-11-30T01:19:30.374Z,3.60
2017-11-30T01:21:58.010Z,3.80
2017-11-30T01:24:25.651Z,3.70
2017-11-30T01:26:53.946Z,3.80
2017-11-30T01:29:21.738Z,4.00
2017-11-30T01:31:49.406Z,3.60
2017-11-30T01:34:17.075Z,3.90
2017-11-30T01:36:44.709Z,3.80
2017-11-30T01:39:12.652Z,3.70
2017-11-30T01:41:40.285Z,3.90
2017-11-30T01:44:08.673Z,3.80
2017-11-30T01:46:36.369Z,3.70
2017-11-30T01:49:04.152Z,3.90
2017-11-30T01:51:31.845Z,3.90
2017-11-30T01:53:59.671Z,3.80
2017-11-30T01:56:27.815Z,3.70
2017-11-30T01:58:55.490Z,3.80
2017-11-30T02:01:23.111Z,3.90
2017-11-30T02:03:50.776Z,3.90
2017-11-30T02:06:18.438Z,3.90
2017-11-30T02:08:46.129Z,3.80
2017-11-30T02:11:13.802Z,4.00
2017-11-30T02:13:41.564Z,4.00
2017-11-30T02:16:09.625Z,4.00
2017-11-30T02:18:37.639Z,4.00
2017-11-30T02:21:06.146Z,3.90
2017-11-30T02:23:33.814Z,3.70
2017-11-30T02:26:01.478Z,3.90
2017-11-30T02:28:29.279Z,3.90
2017-11-30T02:30:56.996Z,3.90
2017-11-30T02:33:24.665Z,3.90
2017-11-30T02:35:52.572Z,3.80
2017-11-30T02:38:20.268Z,3.70
2017-11-30T02:40:48.173Z,3.90
2017-11-30T02:43:16.470Z,3.80
2017-11-30T02:45:44.239Z,3.90
2017-11-30T02:48:11.972Z,3.90
2017-11-30T02:50:39.713Z,3.80
2017-11-30T02:53:07.604Z,3.70
2017-11-30T02:55:35.302Z,3.90
2017-11-30T02:58:03.751Z,3.90
2017-11-30T03:00:31.504Z,3.70
2017-11-30T03:02:59.780Z,3.80
2017-11-30T03:05:27.555Z,4.00
2017-11-30T03:07:55.235Z,4.00
2017-11-30T03:10:22.954Z,3.70
2017-11-30T03:12:51.547Z,3.80
2017-11-30T03:15:19.260Z,3.70
2017-11-30T03:17:47.722Z,3.70
2017-11-30T03:20:15.363Z,3.60
2017-11-30T03:22:43.211Z,3.80
2017-11-30T03:25:10.844Z,3.60
2017-11-30T03:27:38.484Z,3.90
2017-11-30T03:30:06.164Z,3.90
2017-11-30T03:32:33.823Z,3.80
2017-11-30T03:35:01.435Z,3.70
2017-11-30T03:37:29.900Z,3.70
2017-11-30T03:39:57.602Z,3.70
2017-11-30T03:42:26.040Z,3.80
2017-11-30T03:44:53.724Z,3.70
2017-11-30T03:47:25.049Z,4.00
2017-11-30T03:49:52.679Z,3.70
2017-11-30T03:52:20.370Z,3.80
2017-11-30T03:54:48.075Z,4.00
2017-11-30T03:57:16.515Z,3.70
2017-11-30T03:59:44.946Z,3.40
2017-11-30T04:02:13.000Z,3.70
2017-11-30T04:04:40.735Z,3.60
2017-11-30T04:07:08.695Z,3.60
2017-11-30T04:09:36.455Z,3.80
2017-11-30T04:12:04.142Z,3.40
2017-11-30T04:14:31.760Z,3.50
2017-11-30T04:16:59.434Z,3.80
2017-11-30T04:19:27.057Z,3.40
2017-11-30T04:21:54.672Z,3.50
2017-11-30T04:24:22.330Z,3.80
2017-11-30T04:26:51.460Z,3.60
2017-11-30T04:29:19.169Z,3.60
2017-11-30T04:31:46.790Z,3.90
2017-11-30T04:34:14.454Z,3.80
2017-11-30T04:36:42.132Z,3.40
2017-11-30T04:39:09.748Z,3.50
2017-11-30T04:41:37.415Z,3.60
2017-11-30T04:44:05.854Z,3.60
2017-11-30T04:46:33.560Z,3.70
2017-11-30T04:49:01.234Z,3.80
2017-11-30T04:51:28.896Z,3.70
2017-11-30T04:53:56.862Z,3.80
2017-11-30T04:56:25.267Z,3.70
2017-11-30T04:58:52.915Z,3.80
2017-11-30T05:01:20.606Z,3.80
2017-11-30T05:03:48.246Z,3.70
2017-11-30T05:06:16.325Z,3.80
2017-11-30T05:08:44.047Z,3.70
2017-11-30T05:11:11.915Z,3.80
2017-11-30T05:13:39.591Z,3.70
2017-11-30T05:16:07.616Z,3.90
2017-11-30T05:18:36.051Z,3.90
2017-11-30T05:21:03.919Z,3.70
2017-11-30T05:23:31.579Z,3.80
2017-11-30T05:25:59.252Z,3.90
2017-11-30T05:28:26.901Z,3.80
2017-11-30T05:30:54.521Z,3.70
2017-11-30T05:33:22.191Z,3.90
2017-11-30T05:35:50.004Z,3.80
2017-11-30T05:38:17.798Z,3.70
2017-11-30T05:40:46.194Z,3.90
2017-11-30T05:43:13.902Z,3.60
2017-11-30T05:45:41.524Z,3.80
2017-11-30T05:48:09.312Z,3.70
2017-11-30T05:50:36.936Z,3.80
2017-11-30T05:53:04.603Z,3.60
2017-11-30T05:55:32.223Z,3.90
2017-11-30T05:57:59.895Z,3.90
2017-11-30T06:00:28.560Z,3.90
2017-11-30T06:02:56.986Z,3.90
2017-11-30T06:05:24.691Z,3.90
2017-11-30T06:07:53.159Z,3.90
2017-11-30T06:10:23.488Z,3.90
2017-11-30T06:12:52.237Z,3.70
2017-11-30T06:15:19.915Z,3.80
2017-11-30T06:17:47.533Z,3.60
2017-11-30T06:20:16.636Z,3.80
2017-11-30T06:22:44.271Z,3.60
2017-11-30T06:25:12.608Z,3.80
2017-11-30T06:27:40.228Z,3.90
2017-11-30T06:30:09.064Z,3.90
2017-11-30T06:32:37.542Z,3.60
2017-11-30T06:35:05.304Z,3.50
2017-11-30T06:37:32.933Z,3.60
2017-11-30T06:40:00.608Z,3.30
2017-11-30T06:42:28.286Z,3.40
2017-11-30T06:44:55.905Z,3.30
2017-11-30T06:47:26.936Z,3.20
2017-11-30T06:49:54.603Z,3.30
2017-11-30T06:52:22.303Z,3.20
2017-11-30T06:54:50.171Z,3.50
2017-11-30T06:57:17.817Z,3.60
2017-11-30T06:59:45.491Z,3.20
2017-11-30T07:02:13.118Z,3.50
2017-11-30T07:04:40.797Z,3.60
2017-11-30T07:07:08.470Z,3.50
2017-11-30T07:09:36.923Z,3.30
2017-11-30T07:12:04.597Z,3.50
2017-11-30T07:14:32.277Z,3.60
2017-11-30T07:17:00.570Z,3.40
2017-11-30T07:19:28.240Z,3.50
2017-11-30T07:21:55.868Z,3.60
2017-11-30T07:24:23.924Z,3.70
2017-11-30T07:26:51.630Z,3.60
2017-11-30T07:29:19.258Z,3.50
2017-11-30T07:31:47.631Z,3.50
2017-11-30T07:34:15.305Z,3.60
2017-11-30T07:36:42.924Z,3.90
2017-11-30T07:39:10.601Z,3.80
2017-11-30T07:41:38.263Z,3.70
2017-11-30T07:44:05.957Z,3.90
2017-11-30T07:46:33.586Z,3.80
2017-11-30T07:49:01.568Z,3.80
2017-11-30T07:51:29.186Z,3.70
2017-11-30T07:53:56.856Z,3.80
2017-11-30T07:56:24.531Z,3.80
2017-11-30T07:58:52.205Z,3.70
2017-11-30T08:01:20.039Z,3.80
2017-11-30T08:03:47.694Z,3.60
2017-11-30T08:06:16.425Z,3.60
2017-11-30T08:08:44.046Z,3.40
2017-11-30T08:11:11.707Z,3.50
2017-11-30T08:13:39.335Z,3.70
2017-11-30T08:16:07.007Z,3.60
2017-11-30T08:18:34.651Z,3.40
2017-11-30T08:21:02.395Z,3.40
2017-11-30T08:23:30.185Z,3.40
2017-11-30T08:25:57.790Z,3.50
2017-11-30T08:28:25.494Z,3.60
2017-11-30T08:30:53.171Z,3.70
2017-11-30T08:33:20.820Z,3.50
2017-11-30T08:35:48.849Z,3.50
2017-11-30T08:38:16.540Z,3.50
2017-11-30T08:40:44.228Z,3.60
2017-11-30T08:43:11.900Z,3.70
2017-11-30T08:45:39.609Z,3.50
2017-11-30T08:48:07.262Z,3.40
2017-11-30T08:50:34.945Z,3.50
2017-11-30T08:53:02.611Z,3.30
2017-11-30T08:55:30.365Z,3.40
2017-11-30T08:57:58.035Z,3.50
2017-11-30T09:00:27.236Z,3.60
2017-11-30T09:02:55.678Z,3.30
2017-11-30T09:05:23.309Z,3.60
2017-11-30T09:07:50.986Z,3.70
2017-11-30T09:10:18.664Z,3.30
2017-11-30T09:12:46.294Z,3.40
2017-11-30T09:15:13.979Z,3.50
2017-11-30T09:17:41.658Z,3.60
2017-11-30T09:20:09.524Z,3.50
2017-11-30T09:22:37.158Z,3.60
2017-11-30T09:25:04.859Z,3.90
2017-11-30T09:27:32.543Z,3.80
2017-11-30T09:30:00.932Z,3.90
2017-11-30T09:32:28.599Z,3.60
2017-11-30T09:34:56.254Z,3.80
2017-11-30T09:37:23.867Z,4.00
2017-11-30T09:39:51.562Z,3.70
2017-11-30T09:42:19.179Z,3.80
2017-11-30T09:44:46.883Z,3.60
2017-11-30T09:47:15.533Z,3.90
2017-11-30T09:49:43.222Z,3.60
2017-11-30T09:52:11.603Z,3.70
2017-11-30T09:54:39.297Z,3.80
2017-11-30T09:57:07.011Z,3.70
2017-11-30T09:59:34.704Z,3.80
2017-11-30T10:02:02.346Z,3.60
2017-11-30T10:04:30.014Z,3.90
2017-11-30T10:06:57.647Z,3.90
2017-11-30T10:09:25.316Z,3.90
2017-11-30T10:11:53.172Z,3.80
2017-11-30T10:14:20.832Z,3.90
2017-11-30T10:16:48.490Z,4.00
2017-11-30T10:19:16.938Z,3.90
2017-11-30T10:21:44.620Z,3.90
2017-11-30T10:24:12.335Z,3.90
2017-11-30T10:26:40.127Z,4.10
2017-11-30T10:29:07.892Z,4.20
2017-11-30T10:31:35.540Z,4.10
2017-11-30T10:34:03.344Z,4.20
2017-11-30T10:36:31.269Z,4.20
2017-11-30T10:38:58.975Z,4.10
2017-11-30T10:41:26.975Z,4.20
2017-11-30T10:43:54.771Z,4.20
2017-11-30T10:46:22.843Z,4.20
2017-11-30T10:48:50.511Z,4.20
2017-11-30T10:51:18.195Z,4.20
2017-11-30T10:53:45.855Z,4.10
2017-11-30T10:56:14.280Z,4.10
2017-11-30T10:58:41.923Z,3.90
2017-11-30T11:01:09.598Z,4.10
2017-11-30T11:03:37.258Z,4.20
2017-11-30T11:06:04.871Z,4.20
2017-11-30T11:08:32.788Z,4.10
2017-11-30T11:11:00.402Z,4.10
2017-11-30T11:13:28.072Z,4.10
2017-11-30T11:15:55.776Z,3.80
2017-11-30T11:18:23.743Z,4.20
2017-11-30T11:20:51.358Z,4.10
2017-11-30T11:23:18.983Z,4.20
2017-11-30T11:25:46.669Z,4.10
2017-11-30T11:28:14.659Z,4.20
2017-11-30T11:30:42.497Z,4.10
2017-11-30T11:33:10.276Z,4.20
2017-11-30T11:35:39.486Z,4.10
2017-11-30T11:38:07.151Z,3.90
2017-11-30T11:40:34.818Z,4.20
2017-11-30T11:43:03.690Z,4.20
2017-11-30T11:45:31.339Z,4.10
2017-11-30T11:47:59.986Z,4.20
2017-11-30T11:50:27.665Z,4.00
2017-11-30T11:52:55.348Z,4.20
2017-11-30T11:55:23.782Z,4.20
2017-11-30T11:57:51.467Z,4.00
2017-11-30T12:00:19.766Z,4.20
2017-11-30T12:02:47.438Z,4.20
2017-11-30T12:05:15.735Z,4.30
2017-11-30T12:07:43.346Z,4.30
2017-11-30T12:10:11.058Z,4.10
2017-11-30T12:12:38.683Z,4.10
2017-11-30T12:15:07.118Z,4.20
2017-11-30T12:17:34.744Z,4.00
2017-11-30T12:20:02.416Z,4.20
2017-11-30T12:22:30.093Z,4.50
2017-11-30T12:24:57.711Z,4.10
2017-11-30T12:27:25.374Z,4.20
2017-11-30T12:29:53.058Z,4.20
2017-11-30T12:32:20.755Z,4.20
2017-11-30T12:34:48.507Z,4.20
2017-11-30T12:37:16.128Z,4.20
2017-11-30T12:39:44.871Z,4.20
2017-11-30T12:42:12.830Z,4.20
2017-11-30T12:44:40.492Z,4.20
2017-11-30T12:47:08.376Z,4.20
2017-11-30T12:49:36.802Z,4.10
2017-11-30T12:52:05.168Z,3.90
2017-11-30T12:54:32.799Z,4.20
2017-11-30T12:57:00.473Z,4.20
2017-11-30T12:59:28.101Z,4.20
2017-11-30T13:01:55.777Z,4.20
2017-11-30T13:04:23.552Z,4.20
2017-11-30T13:06:51.381Z,4.20
2017-11-30T13:09:19.145Z,4.20
2017-11-30T13:11:46.818Z,4.20
2017-11-30T13:14:14.510Z,4.00
2017-11-30T13:16:42.147Z,4.10
2017-11-30T13:19:10.500Z,4.20
2017-11-30T13:21:38.185Z,4.20
2017-11-30T13:24:05.837Z,4.10
2017-11-30T13:26:34.290Z,3.90
2017-11-30T13:29:01.966Z,3.70
2017-11-30T13:31:29.625Z,3.90
2017-11-30T13:33:57.281Z,3.90
2017-11-30T13:36:25.578Z,3.90
2017-11-30T13:38:54.020Z,3.90
2017-11-30T13:41:21.634Z,4.20
2017-11-30T13:43:50.281Z,3.90
2017-11-30T13:46:17.947Z,3.70
2017-11-30T13:48:45.565Z,3.80
2017-11-30T13:51:15.394Z,4.00
2017-11-30T13:53:47.801Z,3.90
2017-11-30T13:56:15.754Z,3.90
2017-11-30T13:58:45.106Z,3.60
2017-11-30T14:01:12.727Z,3.70
2017-11-30T14:03:40.673Z,3.80
2017-11-30T14:06:08.460Z,3.90
2017-11-30T14:08:36.117Z,3.90
2017-11-30T14:11:03.965Z,4.00
2017-11-30T14:13:31.625Z,4.00
2017-11-30T14:15:59.312Z,3.90
2017-11-30T14:18:26.930Z,3.90
2017-11-30T14:20:54.594Z,3.80
2017-11-30T14:23:22.250Z,3.70
2017-11-30T14:25:50.015Z,3.80
2017-11-30T14:28:17.680Z,3.90
2017-11-30T14:30:45.346Z,3.80
2017-11-30T14:33:13.001Z,3.70
2017-11-30T14:35:40.667Z,3.60
2017-11-30T14:38:08.471Z,3.50
2017-11-30T14:40:36.857Z,3.60
2017-11-30T14:43:05.297Z,3.60
2017-11-30T14:45:32.917Z,3.70
2017-11-30T14:48:00.580Z,3.60
2017-11-30T14:50:28.449Z,3.70
2017-11-30T14:52:56.105Z,3.80
2017-11-30T14:55:23.778Z,3.70
2017-11-30T14:57:51.388Z,3.80
2017-11-30T15:00:19.044Z,3.90
2017-11-30T15:02:46.710Z,3.60
2017-11-30T15:05:15.105Z,3.60
2017-11-30T15:07:42.826Z,3.60
2017-11-30T15:10:10.521Z,3.80
2017-11-30T15:12:38.348Z,3.90
2017-11-30T15:15:05.965Z,3.80
2017-11-30T15:17:33.652Z,4.00
2017-11-30T15:20:01.278Z,3.40
2017-11-30T15:22:28.888Z,3.40
2017-11-30T15:24:56.554Z,3.40
2017-11-30T15:27:24.216Z,4.00
2017-11-30T15:29:53.206Z,3.70
2017-11-30T15:32:20.868Z,3.80
2017-11-30T15:34:48.602Z,3.70
2017-11-30T15:37:16.214Z,3.60
2017-11-30T15:39:43.880Z,3.60
2017-11-30T15:42:12.302Z,3.50
2017-11-30T15:44:39.962Z,3.30
2017-11-30T15:47:07.584Z,3.90
2017-11-30T15:49:35.401Z,3.60
2017-11-30T15:52:03.049Z,3.40
2017-11-30T15:54:30.735Z,3.50
2017-11-30T15:56:59.120Z,3.70
2017-11-30T15:59:26.783Z,3.30
2017-11-30T16:01:54.994Z,3.70
2017-11-30T16:04:22.602Z,3.60
2017-11-30T16:06:50.275Z,3.60
2017-11-30T16:09:17.917Z,3.60
2017-11-30T16:11:45.546Z,3.50
2017-11-30T16:14:13.337Z,3.60
2017-11-30T16:16:40.952Z,3.30
2017-11-30T16:19:08.626Z,3.30
2017-11-30T16:21:36.318Z,3.40
2017-11-30T16:24:03.970Z,3.40
2017-11-30T16:26:31.605Z,3.50
2017-11-30T16:28:59.261Z,3.60
2017-11-30T16:31:27.058Z,3.70
2017-11-30T16:33:54.893Z,3.60
2017-11-30T16:36:22.506Z,3.70
2017-11-30T16:38:50.610Z,3.60
2017-11-30T16:41:18.285Z,3.60
2017-11-30T16:43:45.944Z,3.70
2017-11-30T16:46:13.646Z,3.50
2017-11-30T16:48:41.264Z,3.60
2017-11-30T16:51:10.563Z,3.40
2017-11-30T16:53:39.165Z,3.50
2017-11-30T16:56:12.485Z,3.60
2017-11-30T16:58:40.949Z,3.40
2017-11-30T17:01:08.906Z,3.30
2017-11-30T17:03:36.674Z,3.30
2017-11-30T17:06:04.305Z,3.70
2017-11-30T17:08:31.971Z,3.60
2017-11-30T17:10:59.598Z,3.90
2017-11-30T17:13:27.306Z,3.60
2017-11-30T17:15:54.970Z,3.50
2017-11-30T17:18:22.647Z,3.60
2017-11-30T17:21:11.883Z,3.30
2017-11-30T17:23:39.511Z,3.30
2017-11-30T17:26:07.421Z,3.40
2017-11-30T17:28:35.083Z,3.40
2017-11-30T17:31:04.169Z,3.50
2017-11-30T17:33:31.841Z,3.60
2017-11-30T17:35:59.700Z,3.30
2017-11-30T17:38:27.362Z,3.50
2017-11-30T17:40:54.997Z,3.60
2017-11-30T17:43:22.702Z,3.60
2017-11-30T17:45:50.326Z,3.40
2017-11-30T17:48:17.934Z,3.50
2017-11-30T17:50:46.366Z,3.60
2017-11-30T17:53:14.628Z,3.40
2017-11-30T17:55:42.240Z,3.40
2017-11-30T17:58:09.906Z,3.50
2017-11-30T18:00:37.673Z,3.60
2017-11-30T18:03:05.402Z,3.30
2017-11-30T18:05:33.029Z,3.80
2017-11-30T18:08:00.714Z,4.00
2017-11-30T18:10:28.333Z,4.00
2017-11-30T18:12:56.765Z,3.40
2017-11-30T18:15:24.432Z,3.70
2017-11-30T18:17:53.602Z,3.90
2017-11-30T18:20:21.493Z,3.60
2017-11-30T18:22:49.173Z,3.80
2017-11-30T18:25:16.836Z,3.70
2017-11-30T18:27:44.461Z,3.80
2017-11-30T18:30:12.121Z,3.60
2017-11-30T18:32:39.785Z,3.80
2017-11-30T18:35:07.472Z,3.70
2017-11-30T18:37:35.233Z,3.60
2017-11-30T18:40:03.073Z,3.70
2017-11-30T18:42:30.688Z,3.80
2017-11-30T18:44:58.373Z,3.70
2017-11-30T18:47:26.062Z,3.90
2017-11-30T18:49:53.805Z,3.80
2017-11-30T18:52:21.586Z,3.90
2017-11-30T18:54:49.207Z,3.80
2017-11-30T18:57:16.872Z,3.70
2017-11-30T18:59:44.485Z,3.90
2017-11-30T19:02:12.190Z,3.90
2017-11-30T19:04:39.801Z,3.70
2017-11-30T19:07:08.222Z,3.50
2017-11-30T19:09:35.894Z,3.60
2017-11-30T19:12:03.561Z,3.40
2017-11-30T19:14:31.181Z,3.40
2017-11-30T19:16:58.841Z,3.40
2017-11-30T19:19:27.296Z,3.80
2017-11-30T19:21:54.959Z,3.60
2017-11-30T19:24:23.774Z,3.80
2017-11-30T19:26:51.385Z,3.50
2017-11-30T19:29:19.045Z,3.80
2017-11-30T19:31:46.662Z,3.70
2017-11-30T19:34:15.093Z,3.60
2017-11-30T19:36:42.756Z,3.60
2017-11-30T19:39:10.374Z,3.60
2017-11-30T19:41:38.037Z,3.40
2017-11-30T19:44:05.702Z,3.70
2017-11-30T19:46:36.088Z,3.60
2017-11-30T19:49:03.753Z,4.00
2017-11-30T19:51:32.183Z,3.40
2017-11-30T19:53:59.797Z,3.60
2017-11-30T19:56:27.657Z,3.40
2017-11-30T19:58:56.053Z,3.40
2017-11-30T20:01:24.685Z,3.40
2017-11-30T20:03:52.532Z,3.40
2017-11-30T20:06:20.721Z,3.40
2017-11-30T20:08:48.340Z,3.50
2017-11-30T20:11:16.010Z,3.60
2017-11-30T20:13:43.621Z,3.60
2017-11-30T20:16:11.274Z,3.30
2017-11-30T20:18:38.889Z,3.30
2017-11-30T20:21:06.577Z,3.60
2017-11-30T20:23:34.203Z,3.90
2017-11-30T20:26:01.853Z,3.80
2017-11-30T20:28:29.534Z,3.70
2017-11-30T20:30:57.149Z,3.80
2017-11-30T20:33:24.765Z,3.50
2017-11-30T20:35:52.538Z,3.60
2017-11-30T20:38:20.145Z,3.30
2017-11-30T20:40:48.525Z,3.60
2017-11-30T20:43:16.185Z,3.70
2017-11-30T20:45:44.185Z,3.60
2017-11-30T20:48:11.876Z,3.30
2017-11-30T20:50:39.492Z,3.60
2017-11-30T20:53:07.174Z,3.70
2017-11-30T20:55:34.800Z,3.60
2017-11-30T20:58:02.453Z,3.70
2017-11-30T21:00:30.122Z,3.60
2017-11-30T21:02:57.753Z,3.60
2017-11-30T21:05:25.372Z,3.40
2017-11-30T21:07:53.967Z,3.50
2017-11-30T21:10:23.735Z,3.50
2017-11-30T21:12:51.669Z,3.50
2017-11-30T21:15:19.416Z,3.60
2017-11-30T21:17:47.086Z,3.30
2017-11-30T21:20:16.206Z,3.50
2017-11-30T21:22:44.645Z,3.60
2017-11-30T21:25:12.313Z,3.40
2017-11-30T21:27:39.935Z,3.50
2017-11-30T21:30:07.593Z,3.60
2017-11-30T21:32:35.251Z,3.30
2017-11-30T21:35:02.913Z,3.30
2017-11-30T21:37:30.534Z,3.40
2017-11-30T21:39:58.958Z,3.40
2017-11-30T21:42:26.586Z,3.30
2017-11-30T21:44:54.421Z,3.20
2017-11-30T21:47:22.271Z,3.30
2017-11-30T21:49:49.884Z,3.20
2017-11-30T21:52:17.702Z,3.30
2017-11-30T21:54:45.463Z,3.20
2017-11-30T21:57:13.310Z,3.10
2017-11-30T21:59:40.973Z,3.30
2017-11-30T22:02:08.640Z,2.80
2017-11-30T22:04:37.234Z,3.20
2017-11-30T22:07:05.002Z,3.30
2017-11-30T22:09:32.672Z,3.00
2017-11-30T22:12:00.313Z,3.00
2017-11-30T22:14:27.973Z,2.90
2017-11-30T22:16:55.592Z,2.70
2017-11-30T22:19:23.248Z,2.90
2017-11-30T22:21:50.890Z,2.90
2017-11-30T22:24:18.567Z,2.70
2017-11-30T22:26:47.169Z,2.40
2017-11-30T22:29:14.822Z,2.70
2017-11-30T22:31:42.462Z,2.90
2017-11-30T22:34:10.141Z,3.00
2017-11-30T22:36:37.765Z,2.80
2017-11-30T22:39:05.440Z,2.70
2017-11-30T22:41:33.113Z,2.90
2017-11-30T22:44:00.818Z,2.90
2017-11-30T22:46:28.448Z,2.80
2017-11-30T22:48:56.102Z,2.50
2017-11-30T22:51:23.748Z,2.60
2017-11-30T22:53:51.394Z,2.60
2017-11-30T22:56:19.077Z,2.60
2017-11-30T22:58:46.770Z,2.70
2017-11-30T23:01:14.608Z,2.40
2017-11-30T23:03:42.234Z,2.30
2017-11-30T23:06:09.892Z,2.50
2017-11-30T23:08:38.534Z,2.60
2017-11-30T23:11:06.197Z,2.50
2017-11-30T23:13:34.512Z,2.50
2017-11-30T23:16:02.352Z,2.50
2017-11-30T23:18:30.022Z,2.50
2017-11-30T23:20:57.686Z,2.60
2017-11-30T23:23:25.330Z,2.70
2017-11-30T23:25:53.074Z,2.20
2017-11-30T23:28:20.701Z,2.50
2017-11-30T23:30:48.361Z,2.30
2017-11-30T23:33:16.061Z,2.40
2017-11-30T23:35:43.837Z,2.00
2017-11-30T23:38:12.171Z,2.70
2017-11-30T23:40:39.825Z,2.50
2017-11-30T23:43:07.486Z,2.40
2017-11-30T23:45:35.202Z,2.00
2017-11-30T23:48:02.810Z,2.40
2017-11-30T23:50:30.477Z,2.50
2017-11-30T23:52:58.133Z,2.50
2017-11-30T23:55:25.800Z,2.40
2017-11-30T23:57:53.464Z,2.40
